WZZ6QX EPGD-ESGG
Flight info
| Callsign | WZZ6QX |
|---|---|
| Flight time | 0h 55m |
| Altitude | 38000 |
| Route | VAPOS N133 PENOR DCT NILEN L617 ARQUS |
| Aircraft | A321/M-SDE1E2E3FGIJ1J4RWXY/LB1 |
Departure
| Time | 2026-05-05 19:20 |
|---|---|
| Airport | Gdańsk Lech Wałęsa Airport (EPGD) |
Arrival
| Time | 2026-05-05 20:16 |
|---|---|
| Airport | Göteborg Landvetter Airport (ESGG) |
| Time | Latitude | Longitude | Altitude | Speed | Heading |
|---|---|---|---|---|---|
| 2026-05-05 18:34 | 54.38161 | 18.46437 | 450 ft | 0 kts | 22° |
| 2026-05-05 19:10 | 54.38157 | 18.46433 | 450 ft | 2 kts | 22° |
| 2026-05-05 19:11 | 54.38144 | 18.46424 | 450 ft | 2 kts | 22° |
| 2026-05-05 19:11 | 54.38129 | 18.46414 | 450 ft | 2 kts | 34° |
| 2026-05-05 19:11 | 54.38121 | 18.46392 | 449 ft | 2 kts | 85° |
| 2026-05-05 19:11 | 54.38123 | 18.46376 | 449 ft | 1 kts | 114° |
| 2026-05-05 19:12 | 54.38125 | 18.46366 | 449 ft | 0 kts | 113° |
| 2026-05-05 19:14 | 54.38119 | 18.46391 | 449 ft | 2 kts | 113° |
| 2026-05-05 19:14 | 54.38103 | 18.46456 | 450 ft | 9 kts | 113° |
| 2026-05-05 19:15 | 54.38073 | 18.46572 | 450 ft | 9 kts | 114° |
| 2026-05-05 19:15 | 54.38018 | 18.46597 | 450 ft | 9 kts | 198° |
| 2026-05-05 19:15 | 54.37950 | 18.46585 | 450 ft | 10 kts | 142° |
| 2026-05-05 19:15 | 54.37915 | 18.46698 | 450 ft | 11 kts | 113° |
| 2026-05-05 19:16 | 54.37884 | 18.46826 | 451 ft | 11 kts | 112° |
| 2026-05-05 19:16 | 54.37853 | 18.46952 | 451 ft | 12 kts | 112° |
| 2026-05-05 19:16 | 54.37810 | 18.47124 | 452 ft | 18 kts | 112° |
| 2026-05-05 19:16 | 54.37755 | 18.47348 | 454 ft | 22 kts | 112° |
| 2026-05-05 19:17 | 54.37697 | 18.47583 | 458 ft | 19 kts | 112° |
| 2026-05-05 19:17 | 54.37646 | 18.47790 | 461 ft | 17 kts | 112° |
| 2026-05-05 19:17 | 54.37597 | 18.47989 | 464 ft | 18 kts | 112° |
| 2026-05-05 19:17 | 54.37545 | 18.48197 | 468 ft | 19 kts | 112° |
| 2026-05-05 19:18 | 54.37492 | 18.48411 | 473 ft | 19 kts | 112° |
| 2026-05-05 19:18 | 54.37441 | 18.48621 | 478 ft | 19 kts | 112° |
| 2026-05-05 19:18 | 54.37388 | 18.48832 | 482 ft | 18 kts | 113° |
| 2026-05-05 19:18 | 54.37342 | 18.49016 | 485 ft | 15 kts | 111° |
| 2026-05-05 19:19 | 54.37304 | 18.49179 | 487 ft | 14 kts | 111° |
| 2026-05-05 19:19 | 54.37246 | 18.49261 | 488 ft | 10 kts | 197° |
| 2026-05-05 19:19 | 54.37180 | 18.49198 | 488 ft | 11 kts | 229° |
| 2026-05-05 19:19 | 54.37158 | 18.49058 | 486 ft | 13 kts | 282° |
| 2026-05-05 19:20 | 54.37227 | 18.48759 | 482 ft | 56 kts | 293° |
| 2026-05-05 19:20 | 54.37487 | 18.47714 | 460 ft | 127 kts | 292° |
| 2026-05-05 19:20 | 54.37911 | 18.45996 | 543 ft | 173 kts | 293° |
| 2026-05-05 19:20 | 54.38376 | 18.44100 | 1251 ft | 171 kts | 294° |
| 2026-05-05 19:21 | 54.38833 | 18.42190 | 1891 ft | 170 kts | 295° |
| 2026-05-05 19:21 | 54.39308 | 18.40276 | 2318 ft | 174 kts | 296° |
| 2026-05-05 19:21 | 54.39777 | 18.38384 | 2801 ft | 174 kts | 295° |
| 2026-05-05 19:21 | 54.40250 | 18.36473 | 3280 ft | 174 kts | 295° |
| 2026-05-05 19:22 | 54.40724 | 18.34550 | 3739 ft | 177 kts | 294° |
| 2026-05-05 19:22 | 54.41245 | 18.32573 | 4030 ft | 190 kts | 302° |
| 2026-05-05 19:22 | 54.42257 | 18.31032 | 4325 ft | 203 kts | 331° |
| 2026-05-05 19:22 | 54.43603 | 18.29927 | 4639 ft | 220 kts | 335° |
| 2026-05-05 19:23 | 54.45061 | 18.28783 | 4909 ft | 241 kts | 334° |
| 2026-05-05 19:23 | 54.46660 | 18.27462 | 5310 ft | 259 kts | 332° |
| 2026-05-05 19:23 | 54.48286 | 18.26059 | 5880 ft | 269 kts | 331° |
| 2026-05-05 19:23 | 54.49975 | 18.24563 | 6669 ft | 272 kts | 330° |
| 2026-05-05 19:24 | 54.51654 | 18.23047 | 7467 ft | 275 kts | 329° |
| 2026-05-05 19:24 | 54.53402 | 18.21451 | 8261 ft | 279 kts | 329° |
| 2026-05-05 19:24 | 54.55153 | 18.19841 | 9014 ft | 283 kts | 328° |
| 2026-05-05 19:24 | 54.56934 | 18.18197 | 9758 ft | 286 kts | 328° |
| 2026-05-05 19:25 | 54.58744 | 18.16523 | 10407 ft | 293 kts | 328° |
| 2026-05-05 19:25 | 54.60579 | 18.14816 | 10755 ft | 309 kts | 328° |
| 2026-05-05 19:25 | 54.62524 | 18.13003 | 11067 ft | 326 kts | 328° |
| 2026-05-05 19:25 | 54.64566 | 18.11101 | 11361 ft | 342 kts | 328° |
| 2026-05-05 19:26 | 54.66712 | 18.09102 | 11798 ft | 353 kts | 328° |
| 2026-05-05 19:26 | 54.68866 | 18.07099 | 12451 ft | 356 kts | 328° |
| 2026-05-05 19:26 | 54.71052 | 18.05065 | 13133 ft | 358 kts | 328° |
| 2026-05-05 19:26 | 54.73266 | 18.03003 | 13789 ft | 361 kts | 328° |
| 2026-05-05 19:27 | 54.75450 | 18.00961 | 14403 ft | 363 kts | 328° |
| 2026-05-05 19:27 | 54.77694 | 17.98864 | 15042 ft | 366 kts | 327° |
| 2026-05-05 19:27 | 54.79939 | 17.96761 | 15660 ft | 368 kts | 327° |
| 2026-05-05 19:27 | 54.82181 | 17.94659 | 16270 ft | 370 kts | 327° |
| 2026-05-05 19:28 | 54.84415 | 17.92560 | 16860 ft | 371 kts | 327° |
| 2026-05-05 19:28 | 54.86694 | 17.90414 | 17416 ft | 374 kts | 327° |
| 2026-05-05 19:28 | 54.88975 | 17.88261 | 17967 ft | 376 kts | 326° |
| 2026-05-05 19:28 | 54.91247 | 17.86122 | 18811 ft | 369 kts | 325° |
| 2026-05-05 19:29 | 54.93259 | 17.83513 | 19728 ft | 348 kts | 308° |
| 2026-05-05 19:29 | 54.94770 | 17.80393 | 20517 ft | 341 kts | 304° |
| 2026-05-05 19:29 | 54.96256 | 17.77175 | 21044 ft | 342 kts | 303° |
| 2026-05-05 19:29 | 54.97786 | 17.73878 | 21521 ft | 346 kts | 304° |
| 2026-05-05 19:30 | 54.99299 | 17.70659 | 21985 ft | 348 kts | 304° |
| 2026-05-05 19:30 | 55.00863 | 17.67363 | 22466 ft | 351 kts | 304° |
| 2026-05-05 19:30 | 55.02429 | 17.64084 | 22939 ft | 353 kts | 304° |
| 2026-05-05 19:30 | 55.03995 | 17.60815 | 23382 ft | 355 kts | 304° |
| 2026-05-05 19:31 | 55.05586 | 17.57497 | 23832 ft | 357 kts | 304° |
| 2026-05-05 19:31 | 55.07169 | 17.54201 | 24274 ft | 359 kts | 304° |
| 2026-05-05 19:31 | 55.08778 | 17.50848 | 24727 ft | 361 kts | 304° |
| 2026-05-05 19:31 | 55.10396 | 17.47475 | 25152 ft | 362 kts | 304° |
| 2026-05-05 19:32 | 55.12022 | 17.44082 | 25563 ft | 364 kts | 304° |
| 2026-05-05 19:32 | 55.13630 | 17.40725 | 25962 ft | 366 kts | 304° |
| 2026-05-05 19:32 | 55.15266 | 17.37305 | 26368 ft | 368 kts | 304° |
| 2026-05-05 19:32 | 55.16896 | 17.33896 | 26721 ft | 370 kts | 303° |
| 2026-05-05 19:33 | 55.18545 | 17.30438 | 27114 ft | 372 kts | 303° |
| 2026-05-05 19:33 | 55.20198 | 17.26971 | 27497 ft | 374 kts | 303° |
| 2026-05-05 19:33 | 55.21902 | 17.23391 | 27882 ft | 375 kts | 303° |
| 2026-05-05 19:33 | 55.23558 | 17.19906 | 28231 ft | 377 kts | 303° |
| 2026-05-05 19:34 | 55.25245 | 17.16350 | 28584 ft | 379 kts | 303° |
| 2026-05-05 19:34 | 55.26922 | 17.12812 | 28909 ft | 381 kts | 303° |
| 2026-05-05 19:34 | 55.28600 | 17.09267 | 29232 ft | 383 kts | 303° |
| 2026-05-05 19:35 | 55.32013 | 17.02038 | 29838 ft | 387 kts | 303° |
| 2026-05-05 19:35 | 55.33174 | 16.99575 | 30039 ft | 388 kts | 303° |
| 2026-05-05 19:35 | 55.34882 | 16.95948 | 30356 ft | 389 kts | 303° |
| 2026-05-05 19:35 | 55.36606 | 16.92282 | 30637 ft | 391 kts | 303° |
| 2026-05-05 19:36 | 55.38354 | 16.88556 | 30887 ft | 393 kts | 303° |
| 2026-05-05 19:36 | 55.40084 | 16.84861 | 31137 ft | 395 kts | 303° |
| 2026-05-05 19:36 | 55.41823 | 16.81143 | 31378 ft | 397 kts | 303° |
| 2026-05-05 19:36 | 55.43566 | 16.77408 | 31604 ft | 399 kts | 303° |
| 2026-05-05 19:37 | 55.45319 | 16.73647 | 31848 ft | 400 kts | 303° |
| 2026-05-05 19:37 | 55.47094 | 16.69838 | 32085 ft | 402 kts | 303° |
| 2026-05-05 19:37 | 55.48858 | 16.66050 | 32360 ft | 402 kts | 303° |
| 2026-05-05 19:37 | 55.50634 | 16.62226 | 32651 ft | 402 kts | 303° |
| 2026-05-05 19:38 | 55.52384 | 16.58450 | 32956 ft | 401 kts | 303° |
| 2026-05-05 19:38 | 55.54134 | 16.54668 | 33237 ft | 401 kts | 303° |
| 2026-05-05 19:38 | 55.55905 | 16.50836 | 33498 ft | 401 kts | 303° |
| 2026-05-05 19:38 | 55.57650 | 16.47052 | 33730 ft | 402 kts | 303° |
| 2026-05-05 19:39 | 55.59406 | 16.43243 | 33969 ft | 402 kts | 303° |
| 2026-05-05 19:39 | 55.61160 | 16.39430 | 34218 ft | 402 kts | 303° |
| 2026-05-05 19:39 | 55.62932 | 16.35571 | 34460 ft | 402 kts | 303° |
| 2026-05-05 19:39 | 55.64693 | 16.31727 | 34728 ft | 402 kts | 303° |
| 2026-05-05 19:40 | 55.66438 | 16.27915 | 34941 ft | 401 kts | 303° |
| 2026-05-05 19:40 | 55.68171 | 16.24124 | 35134 ft | 401 kts | 303° |
| 2026-05-05 19:40 | 55.69921 | 16.20289 | 35314 ft | 401 kts | 303° |
| 2026-05-05 19:40 | 55.71682 | 16.16422 | 35482 ft | 401 kts | 303° |
| 2026-05-05 19:41 | 55.73424 | 16.12591 | 35631 ft | 402 kts | 303° |
| 2026-05-05 19:41 | 55.75175 | 16.08736 | 35765 ft | 403 kts | 303° |
| 2026-05-05 19:41 | 55.76924 | 16.04878 | 35915 ft | 404 kts | 303° |
| 2026-05-05 19:41 | 55.78693 | 16.00972 | 36053 ft | 404 kts | 303° |
| 2026-05-05 19:42 | 55.80429 | 15.97133 | 36162 ft | 405 kts | 303° |
| 2026-05-05 19:42 | 55.83960 | 15.89299 | 36355 ft | 407 kts | 303° |
| 2026-05-05 19:42 | 55.85714 | 15.85401 | 36486 ft | 407 kts | 303° |
| 2026-05-05 19:43 | 55.87478 | 15.81470 | 36628 ft | 408 kts | 303° |
| 2026-05-05 19:43 | 55.89234 | 15.77551 | 36765 ft | 409 kts | 303° |
| 2026-05-05 19:43 | 55.91018 | 15.73568 | 36898 ft | 410 kts | 303° |
| 2026-05-05 19:43 | 55.92776 | 15.69635 | 37009 ft | 411 kts | 303° |
| 2026-05-05 19:44 | 55.94553 | 15.65650 | 37119 ft | 412 kts | 304° |
| 2026-05-05 19:44 | 55.96329 | 15.61663 | 37232 ft | 413 kts | 304° |
| 2026-05-05 19:44 | 55.98117 | 15.57642 | 37336 ft | 414 kts | 304° |
| 2026-05-05 19:44 | 55.99887 | 15.53656 | 37463 ft | 415 kts | 304° |
| 2026-05-05 19:45 | 56.01682 | 15.49607 | 37558 ft | 416 kts | 304° |
| 2026-05-05 19:45 | 56.03473 | 15.45560 | 37675 ft | 416 kts | 304° |
| 2026-05-05 19:45 | 56.05267 | 15.41499 | 37790 ft | 417 kts | 304° |
| 2026-05-05 19:46 | 56.08882 | 15.33296 | 37867 ft | 419 kts | 303° |
| 2026-05-05 19:46 | 56.12480 | 15.25106 | 37866 ft | 419 kts | 303° |
| 2026-05-05 19:47 | 56.16065 | 15.16917 | 37870 ft | 418 kts | 303° |
| 2026-05-05 19:47 | 56.19632 | 15.08740 | 37866 ft | 419 kts | 303° |
| 2026-05-05 19:47 | 56.21413 | 15.04645 | 37618 ft | 419 kts | 303° |
| 2026-05-05 19:48 | 56.23207 | 15.00518 | 37372 ft | 418 kts | 303° |
| 2026-05-05 19:48 | 56.24977 | 14.96437 | 37125 ft | 418 kts | 302° |
| 2026-05-05 19:48 | 56.26756 | 14.92326 | 36879 ft | 418 kts | 303° |
| 2026-05-05 19:48 | 56.28534 | 14.88211 | 36636 ft | 417 kts | 302° |
| 2026-05-05 19:49 | 56.30306 | 14.84104 | 36402 ft | 417 kts | 303° |
| 2026-05-05 19:49 | 56.32070 | 14.80006 | 36200 ft | 417 kts | 302° |
| 2026-05-05 19:49 | 56.33835 | 14.75901 | 36038 ft | 417 kts | 303° |
| 2026-05-05 19:49 | 56.35601 | 14.71787 | 35916 ft | 416 kts | 303° |
| 2026-05-05 19:50 | 56.37364 | 14.67671 | 35886 ft | 416 kts | 303° |
| 2026-05-05 19:50 | 56.40877 | 14.59454 | 35870 ft | 416 kts | 302° |
| 2026-05-05 19:50 | 56.42649 | 14.55303 | 35706 ft | 409 kts | 302° |
| 2026-05-05 19:51 | 56.44346 | 14.51323 | 35533 ft | 404 kts | 302° |
| 2026-05-05 19:51 | 56.46066 | 14.47276 | 35339 ft | 403 kts | 302° |
| 2026-05-05 19:51 | 56.47766 | 14.43266 | 35128 ft | 404 kts | 302° |
| 2026-05-05 19:51 | 56.49445 | 14.39300 | 34827 ft | 404 kts | 302° |
| 2026-05-05 19:52 | 56.51160 | 14.35242 | 34344 ft | 404 kts | 302° |
| 2026-05-05 19:52 | 56.52851 | 14.31232 | 33784 ft | 404 kts | 301° |
| 2026-05-05 19:52 | 56.54576 | 14.27137 | 33188 ft | 404 kts | 301° |
| 2026-05-05 19:52 | 56.56284 | 14.23076 | 32585 ft | 404 kts | 301° |
| 2026-05-05 19:53 | 56.57975 | 14.19048 | 31963 ft | 404 kts | 301° |
| 2026-05-05 19:53 | 56.59667 | 14.15013 | 31427 ft | 401 kts | 301° |
| 2026-05-05 19:53 | 56.61338 | 14.11025 | 31014 ft | 397 kts | 301° |
| 2026-05-05 19:53 | 56.62989 | 14.07080 | 30586 ft | 394 kts | 301° |
| 2026-05-05 19:54 | 56.64645 | 14.03111 | 30151 ft | 391 kts | 301° |
| 2026-05-05 19:54 | 56.66273 | 13.99205 | 29690 ft | 388 kts | 301° |
| 2026-05-05 19:54 | 56.67879 | 13.95341 | 29237 ft | 384 kts | 301° |
| 2026-05-05 19:54 | 56.69481 | 13.91485 | 28782 ft | 381 kts | 301° |
| 2026-05-05 19:55 | 56.71058 | 13.87680 | 28337 ft | 377 kts | 301° |
| 2026-05-05 19:55 | 56.72611 | 13.83931 | 27879 ft | 374 kts | 301° |
| 2026-05-05 19:55 | 56.74164 | 13.80171 | 27447 ft | 370 kts | 301° |
| 2026-05-05 19:55 | 56.75698 | 13.76454 | 27014 ft | 366 kts | 301° |
| 2026-05-05 19:56 | 56.77213 | 13.72780 | 26554 ft | 364 kts | 301° |
| 2026-05-05 19:56 | 56.78709 | 13.69141 | 26114 ft | 360 kts | 301° |
| 2026-05-05 19:56 | 56.80269 | 13.65545 | 25629 ft | 362 kts | 308° |
| 2026-05-05 19:56 | 56.82332 | 13.62836 | 25055 ft | 373 kts | 323° |
| 2026-05-05 19:57 | 56.84568 | 13.60511 | 24433 ft | 374 kts | 323° |
| 2026-05-05 19:57 | 56.86811 | 13.58167 | 23784 ft | 376 kts | 323° |
| 2026-05-05 19:57 | 56.89076 | 13.55767 | 23182 ft | 375 kts | 323° |
| 2026-05-05 19:57 | 56.91314 | 13.53366 | 22633 ft | 374 kts | 323° |
| 2026-05-05 19:58 | 56.93544 | 13.50954 | 22140 ft | 371 kts | 323° |
| 2026-05-05 19:58 | 56.95739 | 13.48566 | 21677 ft | 368 kts | 323° |
| 2026-05-05 19:58 | 56.97896 | 13.46205 | 21205 ft | 365 kts | 323° |
| 2026-05-05 19:58 | 57.00075 | 13.43813 | 20716 ft | 362 kts | 323° |
| 2026-05-05 19:59 | 57.02216 | 13.41453 | 20248 ft | 360 kts | 323° |
| 2026-05-05 19:59 | 57.04331 | 13.39122 | 19801 ft | 357 kts | 323° |
| 2026-05-05 19:59 | 57.06440 | 13.36792 | 19343 ft | 355 kts | 323° |
| 2026-05-05 19:59 | 57.08565 | 13.34441 | 18890 ft | 352 kts | 322° |
| 2026-05-05 20:00 | 57.10633 | 13.32147 | 18449 ft | 349 kts | 322° |
| 2026-05-05 20:00 | 57.12738 | 13.29809 | 18002 ft | 347 kts | 322° |
| 2026-05-05 20:00 | 57.14855 | 13.27458 | 17541 ft | 345 kts | 322° |
| 2026-05-05 20:00 | 57.16916 | 13.25163 | 17072 ft | 344 kts | 322° |
| 2026-05-05 20:01 | 57.18969 | 13.22875 | 16628 ft | 341 kts | 322° |
| 2026-05-05 20:01 | 57.20985 | 13.20624 | 16181 ft | 339 kts | 322° |
| 2026-05-05 20:01 | 57.22968 | 13.18407 | 15725 ft | 337 kts | 322° |
| 2026-05-05 20:01 | 57.24987 | 13.16147 | 15253 ft | 336 kts | 322° |
| 2026-05-05 20:02 | 57.26957 | 13.13940 | 14796 ft | 335 kts | 322° |
| 2026-05-05 20:02 | 57.28935 | 13.11721 | 14343 ft | 332 kts | 322° |
| 2026-05-05 20:02 | 57.30890 | 13.09525 | 13901 ft | 330 kts | 322° |
| 2026-05-05 20:02 | 57.32849 | 13.07318 | 13463 ft | 328 kts | 323° |
| 2026-05-05 20:03 | 57.34782 | 13.05138 | 13007 ft | 327 kts | 323° |
| 2026-05-05 20:03 | 57.36724 | 13.02945 | 12532 ft | 326 kts | 324° |
| 2026-05-05 20:03 | 57.38632 | 13.00788 | 12072 ft | 325 kts | 324° |
| 2026-05-05 20:03 | 57.40579 | 12.98587 | 11610 ft | 323 kts | 324° |
| 2026-05-05 20:04 | 57.42497 | 12.96418 | 11153 ft | 322 kts | 325° |
| 2026-05-05 20:04 | 57.44390 | 12.94271 | 10690 ft | 320 kts | 325° |
| 2026-05-05 20:04 | 57.46275 | 12.92133 | 10243 ft | 318 kts | 326° |
| 2026-05-05 20:04 | 57.48155 | 12.90002 | 10072 ft | 307 kts | 326° |
| 2026-05-05 20:05 | 57.49948 | 12.87972 | 9938 ft | 295 kts | 326° |
| 2026-05-05 20:05 | 57.51651 | 12.86040 | 9861 ft | 283 kts | 325° |
| 2026-05-05 20:05 | 57.53309 | 12.84153 | 9479 ft | 278 kts | 326° |
| 2026-05-05 20:05 | 57.54924 | 12.82309 | 9049 ft | 270 kts | 326° |
| 2026-05-05 20:06 | 57.56510 | 12.80494 | 8573 ft | 264 kts | 326° |
| 2026-05-05 20:06 | 57.58062 | 12.78718 | 8188 ft | 258 kts | 326° |
| 2026-05-05 20:06 | 57.59587 | 12.76971 | 7837 ft | 258 kts | 327° |
| 2026-05-05 20:06 | 57.61102 | 12.75232 | 7472 ft | 259 kts | 327° |
| 2026-05-05 20:07 | 57.62640 | 12.73467 | 7118 ft | 260 kts | 327° |
| 2026-05-05 20:07 | 57.64177 | 12.71704 | 6777 ft | 260 kts | 328° |
| 2026-05-05 20:07 | 57.65721 | 12.69930 | 6428 ft | 261 kts | 328° |
| 2026-05-05 20:07 | 57.67254 | 12.68169 | 6079 ft | 261 kts | 328° |
| 2026-05-05 20:08 | 57.68784 | 12.66410 | 5737 ft | 261 kts | 328° |
| 2026-05-05 20:08 | 57.70344 | 12.64612 | 5402 ft | 261 kts | 328° |
| 2026-05-05 20:08 | 57.71876 | 12.62879 | 5055 ft | 261 kts | 330° |
| 2026-05-05 20:08 | 57.73508 | 12.61397 | 4782 ft | 258 kts | 337° |
| 2026-05-05 20:09 | 57.75149 | 12.60220 | 4622 ft | 251 kts | 339° |
| 2026-05-05 20:09 | 57.76754 | 12.59131 | 4451 ft | 244 kts | 339° |
| 2026-05-05 20:09 | 57.78335 | 12.58026 | 4275 ft | 238 kts | 336° |
| 2026-05-05 20:09 | 57.79773 | 12.56632 | 4106 ft | 232 kts | 328° |
| 2026-05-05 20:10 | 57.81123 | 12.55023 | 3938 ft | 227 kts | 326° |
| 2026-05-05 20:10 | 57.82441 | 12.53400 | 3768 ft | 222 kts | 326° |
| 2026-05-05 20:10 | 57.83685 | 12.51757 | 3575 ft | 218 kts | 316° |
| 2026-05-05 20:10 | 57.84358 | 12.49336 | 3345 ft | 214 kts | 274° |
| 2026-05-05 20:11 | 57.83949 | 12.46777 | 3278 ft | 203 kts | 235° |
| 2026-05-05 20:11 | 57.82982 | 12.44905 | 3015 ft | 200 kts | 227° |
| 2026-05-05 20:11 | 57.82037 | 12.43012 | 2681 ft | 199 kts | 229° |
| 2026-05-05 20:11 | 57.80951 | 12.41457 | 2486 ft | 192 kts | 213° |
| 2026-05-05 20:12 | 57.79834 | 12.40317 | 2456 ft | 175 kts | 210° |
| 2026-05-05 20:12 | 57.78807 | 12.39368 | 2436 ft | 157 kts | 208° |
| 2026-05-05 20:12 | 57.77835 | 12.38490 | 2451 ft | 151 kts | 209° |
| 2026-05-05 20:12 | 57.76879 | 12.37624 | 2466 ft | 151 kts | 209° |
| 2026-05-05 20:13 | 57.75938 | 12.36770 | 2354 ft | 151 kts | 209° |
| 2026-05-05 20:13 | 57.74999 | 12.35917 | 2184 ft | 149 kts | 209° |
| 2026-05-05 20:13 | 57.74065 | 12.35067 | 1969 ft | 149 kts | 209° |
| 2026-05-05 20:13 | 57.73142 | 12.34227 | 1757 ft | 148 kts | 208° |
| 2026-05-05 20:14 | 57.72222 | 12.33390 | 1552 ft | 147 kts | 208° |
| 2026-05-05 20:14 | 57.71291 | 12.32542 | 1350 ft | 147 kts | 208° |
| 2026-05-05 20:14 | 57.70395 | 12.31731 | 1132 ft | 142 kts | 207° |
| 2026-05-05 20:14 | 57.69506 | 12.30927 | 938 ft | 140 kts | 207° |
| 2026-05-05 20:15 | 57.68637 | 12.30126 | 786 ft | 140 kts | 207° |
| 2026-05-05 20:15 | 57.67758 | 12.29322 | 587 ft | 139 kts | 206° |
| 2026-05-05 20:15 | 57.66932 | 12.28570 | 512 ft | 116 kts | 206° |
| 2026-05-05 20:15 | 57.66359 | 12.28046 | 508 ft | 65 kts | 206° |
| 2026-05-05 20:16 | 57.66063 | 12.27780 | 506 ft | 37 kts | 206° |
| 2026-05-05 20:16 | 57.65879 | 12.27670 | 505 ft | 25 kts | 182° |
| 2026-05-05 20:16 | 57.65747 | 12.27680 | 506 ft | 10 kts | 165° |
| 2026-05-05 20:16 | 57.65714 | 12.27754 | 508 ft | 6 kts | 96° |
| 2026-05-05 20:17 | 57.65725 | 12.27806 | 509 ft | 0 kts | 37° |
| 2026-05-05 20:18 | 57.65727 | 12.27809 | 509 ft | 1 kts | 36° |
| 2026-05-05 20:18 | 57.65760 | 12.27850 | 509 ft | 11 kts | 29° |
| 2026-05-05 20:18 | 57.65844 | 12.27924 | 508 ft | 14 kts | 24° |
| 2026-05-05 20:19 | 57.65934 | 12.28005 | 508 ft | 14 kts | 26° |
| 2026-05-05 20:19 | 57.66030 | 12.28094 | 507 ft | 16 kts | 26° |
| 2026-05-05 20:19 | 57.66148 | 12.28204 | 508 ft | 21 kts | 26° |
| 2026-05-05 20:19 | 57.66285 | 12.28328 | 508 ft | 21 kts | 26° |
| 2026-05-05 20:20 | 57.66419 | 12.28449 | 509 ft | 20 kts | 25° |
| 2026-05-05 20:20 | 57.66544 | 12.28561 | 511 ft | 19 kts | 27° |
| 2026-05-05 20:20 | 57.66659 | 12.28668 | 513 ft | 17 kts | 26° |
| 2026-05-05 20:20 | 57.66764 | 12.28763 | 514 ft | 8 kts | 25° |
| 2026-05-05 20:21 | 57.66817 | 12.28818 | 515 ft | 8 kts | 47° |
| 2026-05-05 20:21 | 57.66822 | 12.28903 | 517 ft | 5 kts | 111° |
| 2026-05-05 20:21 | 57.66812 | 12.28949 | 519 ft | 4 kts | 114° |
| 2026-05-05 20:21 | 57.66793 | 12.29025 | 522 ft | 7 kts | 115° |
| 2026-05-05 20:22 | 57.66766 | 12.29125 | 522 ft | 9 kts | 116° |
| 2026-05-05 20:22 | 57.66739 | 12.29233 | 522 ft | 9 kts | 116° |
| 2026-05-05 20:22 | 57.66730 | 12.29267 | 522 ft | 0 kts | 116° |
| 2026-05-05 20:22 | 57.66728 | 12.29274 | 522 ft | 0 kts | 116° |